sensor_id;sensor_type;location;lat;lon;timestamp;pressure;altitude;pressure_sealevel;temperature;humidity
9343;BME280;4710;51.382;7.244;2022-09-12T11:54:55;99357.70;;;32.58;39.47
9343;BME280;4710;51.382;7.244;2022-09-12T11:57:47;99356.52;;;32.65;38.98
9343;BME280;4710;51.382;7.244;2022-09-12T12:00:31;99350.38;;;32.48;39.64
9343;BME280;4710;51.382;7.244;2022-09-12T12:03:19;99349.77;;;31.52;38.30
9343;BME280;4710;51.382;7.244;2022-09-12T12:06:02;99346.19;;;32.89;38.21
9343;BME280;4710;51.382;7.244;2022-09-12T12:08:42;99338.09;;;32.70;37.82
9343;BME280;4710;51.382;7.244;2022-09-12T12:11:28;99337.97;;;33.09;37.13
9343;BME280;4710;51.382;7.244;2022-09-12T12:14:16;99340.95;;;32.95;36.73
9343;BME280;4710;51.382;7.244;2022-09-12T12:16:55;99337.20;;;31.74;37.00
9343;BME280;4710;51.382;7.244;2022-09-12T12:19:34;99332.52;;;32.58;36.83
9343;BME280;4710;51.382;7.244;2022-09-12T12:22:17;99340.59;;;32.43;37.38
9343;BME280;4710;51.382;7.244;2022-09-12T12:25:05;99327.55;;;32.83;37.11
9343;BME280;4710;51.382;7.244;2022-09-12T12:27:49;99332.02;;;32.66;37.15
9343;BME280;4710;51.382;7.244;2022-09-12T12:33:51;99321.17;;;33.18;35.18
9343;BME280;4710;51.382;7.244;2022-09-12T12:36:35;99327.24;;;32.74;34.27
9343;BME280;4710;51.382;7.244;2022-09-12T12:42:59;99320.16;;;31.91;35.15
9343;BME280;4710;51.382;7.244;2022-09-12T12:44:51;99306.91;;;33.26;34.91
9343;BME280;4710;51.382;7.244;2022-09-12T12:47:31;99313.47;;;34.17;34.14
9343;BME280;4710;51.382;7.244;2022-09-12T12:53:16;99301.97;;;33.85;34.40
9343;BME280;4710;51.382;7.244;2022-09-12T12:55:56;99295.83;;;33.16;35.18
9343;BME280;4710;51.382;7.244;2022-09-12T12:58:37;99298.80;;;32.49;34.88
9343;BME280;4710;51.382;7.244;2022-09-12T13:01:18;99285.83;;;33.21;33.97
9343;BME280;4710;51.382;7.244;2022-09-12T13:03:59;99282.17;;;32.95;33.88
9343;BME280;4710;51.382;7.244;2022-09-12T13:06:41;99279.35;;;33.61;34.85
9343;BME280;4710;51.382;7.244;2022-09-12T13:09:29;99272.31;;;33.47;33.12
9343;BME280;4710;51.382;7.244;2022-09-12T13:12:09;99271.28;;;34.24;33.57
9343;BME280;4710;51.382;7.244;2022-09-12T13:14:50;99275.69;;;34.25;33.73
9343;BME280;4710;51.382;7.244;2022-09-12T13:17:38;99267.13;;;34.17;33.15
9343;BME280;4710;51.382;7.244;2022-09-12T13:20:19;99272.33;;;34.38;32.89
9343;BME280;4710;51.382;7.244;2022-09-12T13:22:58;99270.99;;;32.89;32.36
9343;BME280;4710;51.382;7.244;2022-09-12T13:25:36;99267.80;;;32.76;33.50
9343;BME280;4710;51.382;7.244;2022-09-12T13:28:16;99257.83;;;33.60;32.08
9343;BME280;4710;51.382;7.244;2022-09-12T13:30:59;99247.09;;;33.76;33.45
9343;BME280;4710;51.382;7.244;2022-09-12T13:33:42;99264.26;;;32.55;34.38
9343;BME280;4710;51.382;7.244;2022-09-12T13:36:40;99260.53;;;32.96;32.62
9343;BME280;4710;51.382;7.244;2022-09-12T13:39:27;99265.39;;;33.02;32.72
9343;BME280;4710;51.382;7.244;2022-09-12T13:42:45;99254.49;;;33.14;32.91
9343;BME280;4710;51.382;7.244;2022-09-12T13:45:24;99256.03;;;33.80;32.43
9343;BME280;4710;51.382;7.244;2022-09-12T13:48:15;99250.66;;;33.67;33.66
9343;BME280;4710;51.382;7.244;2022-09-12T13:50:56;99241.06;;;34.14;31.90
9343;BME280;4710;51.382;7.244;2022-09-12T13:53:41;99237.08;;;34.49;33.00
9343;BME280;4710;51.382;7.244;2022-09-12T13:56:22;99242.81;;;33.57;32.89
9343;BME280;4710;51.382;7.244;2022-09-12T13:59:00;99243.60;;;32.88;33.15
9343;BME280;4710;51.382;7.244;2022-09-12T14:01:41;99241.67;;;33.93;32.15
9343;BME280;4710;51.382;7.244;2022-09-12T14:04:22;99240.10;;;34.09;31.59
9343;BME280;4710;51.382;7.244;2022-09-12T14:07:12;99244.94;;;34.52;32.22
9343;BME280;4710;51.382;7.244;2022-09-12T14:09:53;99243.05;;;34.71;31.86
9343;BME280;4710;51.382;7.244;2022-09-12T14:12:41;99232.52;;;34.49;31.95
9343;BME280;4710;51.382;7.244;2022-09-12T14:15:23;99233.88;;;34.28;32.11
9343;BME280;4710;51.382;7.244;2022-09-12T14:18:03;99236.89;;;34.58;32.86
9343;BME280;4710;51.382;7.244;2022-09-12T14:20:40;99233.41;;;33.96;32.19
9343;BME280;4710;51.382;7.244;2022-09-12T14:23:31;99230.97;;;34.82;31.30
9343;BME280;4710;51.382;7.244;2022-09-12T14:26:13;99224.09;;;33.39;32.04
9343;BME280;4710;51.382;7.244;2022-09-12T14:28:53;99226.83;;;33.74;33.05
9343;BME280;4710;51.382;7.244;2022-09-12T14:31:34;99230.53;;;33.84;32.17
9343;BME280;4710;51.382;7.244;2022-09-12T14:34:15;99228.47;;;33.83;32.29
9343;BME280;4710;51.382;7.244;2022-09-12T14:36:58;99211.08;;;34.55;32.27
9343;BME280;4710;51.382;7.244;2022-09-12T14:39:39;99210.13;;;33.85;31.72
9343;BME280;4710;51.382;7.244;2022-09-12T14:42:19;99205.63;;;33.12;31.97
9343;BME280;4710;51.382;7.244;2022-09-12T14:45:00;99208.08;;;32.94;32.34
9343;BME280;4710;51.382;7.244;2022-09-12T14:47:42;99207.25;;;33.71;32.23
9343;BME280;4710;51.382;7.244;2022-09-12T14:50:25;99211.38;;;32.83;32.01
9343;BME280;4710;51.382;7.244;2022-09-12T14:53:09;99199.50;;;34.27;31.48
9343;BME280;4710;51.382;7.244;2022-09-12T14:55:51;99194.67;;;34.31;31.12
9343;BME280;4710;51.382;7.244;2022-09-12T14:58:31;99192.98;;;32.61;31.76
9343;BME280;4710;51.382;7.244;2022-09-12T15:01:26;99181.64;;;33.05;31.81
9343;BME280;4710;51.382;7.244;2022-09-12T15:04:03;99183.99;;;32.32;32.63
9343;BME280;4710;51.382;7.244;2022-09-12T15:06:40;99179.59;;;33.41;31.55
9343;BME280;4710;51.382;7.244;2022-09-12T15:13:12;99172.31;;;34.80;31.16
9343;BME280;4710;51.382;7.244;2022-09-12T15:26:33;99170.14;;;33.87;31.27
9343;BME280;4710;51.382;7.244;2022-09-12T16:22:04;99124.86;;;34.49;30.51
9343;BME280;4710;51.382;7.244;2022-09-12T16:24:41;99123.75;;;35.22;30.90
9343;BME280;4710;51.382;7.244;2022-09-12T16:27:22;99119.88;;;35.04;30.46
9343;BME280;4710;51.382;7.244;2022-09-12T16:30:04;99117.96;;;35.04;30.64
9343;BME280;4710;51.382;7.244;2022-09-12T16:32:46;99119.20;;;35.36;30.45
9343;BME280;4710;51.382;7.244;2022-09-12T16:35:24;99110.98;;;35.54;30.55
9343;BME280;4710;51.382;7.244;2022-09-12T16:38:09;99108.87;;;35.21;31.19
9343;BME280;4710;51.382;7.244;2022-09-12T16:40:47;99106.29;;;35.29;31.56
9343;BME280;4710;51.382;7.244;2022-09-12T16:43:28;99089.08;;;35.84;30.75
9343;BME280;4710;51.382;7.244;2022-09-12T16:46:14;99097.28;;;36.15;30.13
9343;BME280;4710;51.382;7.244;2022-09-12T16:48:56;99104.06;;;36.13;30.17
9343;BME280;4710;51.382;7.244;2022-09-12T16:51:41;99102.97;;;36.23;30.05
9343;BME280;4710;51.382;7.244;2022-09-12T16:54:22;99095.55;;;36.19;29.85
9343;BME280;4710;51.382;7.244;2022-09-12T16:57:47;99089.61;;;36.37;29.65
9343;BME280;4710;51.382;7.244;2022-09-12T17:00:27;99086.71;;;36.35;29.79
9343;BME280;4710;51.382;7.244;2022-09-12T17:03:05;99087.55;;;36.36;29.86
9343;BME280;4710;51.382;7.244;2022-09-12T17:05:45;99088.08;;;36.45;30.04
9343;BME280;4710;51.382;7.244;2022-09-12T17:08:22;99081.17;;;36.54;29.81
9343;BME280;4710;51.382;7.244;2022-09-12T17:11:02;99082.46;;;36.34;29.99
9343;BME280;4710;51.382;7.244;2022-09-12T17:13:46;99077.88;;;36.43;29.82
9343;BME280;4710;51.382;7.244;2022-09-12T17:16:27;99078.59;;;36.51;29.85
9343;BME280;4710;51.382;7.244;2022-09-12T17:19:07;99077.25;;;36.39;30.15
9343;BME280;4710;51.382;7.244;2022-09-12T17:21:47;99076.69;;;36.30;29.98
9343;BME280;4710;51.382;7.244;2022-09-12T17:24:28;99074.69;;;36.26;29.94
9343;BME280;4710;51.382;7.244;2022-09-12T17:27:05;99068.34;;;36.14;30.40
9343;BME280;4710;51.382;7.244;2022-09-12T17:29:42;99072.39;;;36.01;30.91
9343;BME280;4710;51.382;7.244;2022-09-12T17:32:19;99074.75;;;35.89;30.76
9343;BME280;4710;51.382;7.244;2022-09-12T17:35:01;99070.69;;;35.93;31.00
9343;BME280;4710;51.382;7.244;2022-09-12T17:37:41;99067.21;;;35.85;30.68
9343;BME280;4710;51.382;7.244;2022-09-12T17:40:21;99065.31;;;35.34;31.60
9343;BME280;4710;51.382;7.244;2022-09-12T17:43:01;99073.11;;;35.17;31.45
9343;BME280;4710;51.382;7.244;2022-09-12T17:45:42;99068.80;;;35.21;31.65
9343;BME280;4710;51.382;7.244;2022-09-12T17:48:23;99058.13;;;35.21;31.96
9343;BME280;4710;51.382;7.244;2022-09-12T17:51:07;99066.35;;;35.12;31.80
9343;BME280;4710;51.382;7.244;2022-09-12T17:53:47;99072.16;;;34.82;31.92
9343;BME280;4710;51.382;7.244;2022-09-12T17:56:24;99071.98;;;34.07;31.94
9343;BME280;4710;51.382;7.244;2022-09-12T17:59:05;99071.03;;;34.30;32.24
9343;BME280;4710;51.382;7.244;2022-09-12T18:01:48;99075.00;;;34.09;32.38
9343;BME280;4710;51.382;7.244;2022-09-12T18:04:31;99070.80;;;34.24;32.57
9343;BME280;4710;51.382;7.244;2022-09-12T18:07:09;99068.53;;;33.85;32.69
9343;BME280;4710;51.382;7.244;2022-09-12T18:09:46;99067.50;;;33.95;32.62
9343;BME280;4710;51.382;7.244;2022-09-12T18:12:28;99060.79;;;33.87;32.97
9343;BME280;4710;51.382;7.244;2022-09-12T18:15:10;99062.36;;;34.03;32.97
9343;BME280;4710;51.382;7.244;2022-09-12T18:17:51;99062.05;;;34.05;32.69
9343;BME280;4710;51.382;7.244;2022-09-12T18:20:29;99055.69;;;34.12;32.88
9343;BME280;4710;51.382;7.244;2022-09-12T18:23:06;99046.97;;;34.21;32.86
9343;BME280;4710;51.382;7.244;2022-09-12T18:25:44;99046.19;;;34.06;32.96
9343;BME280;4710;51.382;7.244;2022-09-12T18:28:21;99038.16;;;33.90;33.01
9343;BME280;4710;51.382;7.244;2022-09-12T18:30:58;99045.81;;;34.01;33.13
9343;BME280;4710;51.382;7.244;2022-09-12T18:33:36;99052.05;;;33.06;34.10
9343;BME280;4710;51.382;7.244;2022-09-12T18:36:16;99057.20;;;32.68;34.48
9343;BME280;4710;51.382;7.244;2022-09-12T18:38:57;99065.58;;;32.78;35.08
9343;BME280;4710;51.382;7.244;2022-09-12T18:41:34;99065.84;;;32.86;34.31
9343;BME280;4710;51.382;7.244;2022-09-12T18:44:11;99060.01;;;33.38;34.21
9343;BME280;4710;51.382;7.244;2022-09-12T18:46:52;99056.69;;;33.41;33.89
9343;BME280;4710;51.382;7.244;2022-09-12T18:49:30;99046.86;;;33.49;33.93
9343;BME280;4710;51.382;7.244;2022-09-12T18:52:08;99038.08;;;33.81;33.72
9343;BME280;4710;51.382;7.244;2022-09-12T18:54:49;99031.68;;;33.90;33.54
9343;BME280;4710;51.382;7.244;2022-09-12T18:57:30;99027.85;;;33.84;33.32
9343;BME280;4710;51.382;7.244;2022-09-12T19:00:13;99044.08;;;33.54;33.88
9343;BME280;4710;51.382;7.244;2022-09-12T19:02:50;99049.62;;;32.82;35.01
9343;BME280;4710;51.382;7.244;2022-09-12T19:05:28;99045.64;;;33.48;34.52
9343;BME280;4710;51.382;7.244;2022-09-12T19:08:05;99043.17;;;33.39;34.40
9343;BME280;4710;51.382;7.244;2022-09-12T19:10:42;99042.14;;;33.08;34.77
9343;BME280;4710;51.382;7.244;2022-09-12T19:13:23;99041.50;;;32.61;35.12
9343;BME280;4710;51.382;7.244;2022-09-12T19:16:03;99049.89;;;32.93;34.75
9343;BME280;4710;51.382;7.244;2022-09-12T19:18:43;99036.78;;;33.07;34.90
9343;BME280;4710;51.382;7.244;2022-09-12T19:21:25;99028.08;;;33.14;34.99
9343;BME280;4710;51.382;7.244;2022-09-12T19:24:05;99022.93;;;33.42;34.78
9343;BME280;4710;51.382;7.244;2022-09-12T19:26:45;99020.52;;;33.23;35.06
9343;BME280;4710;51.382;7.244;2022-09-12T19:29:26;99017.09;;;33.09;35.49
9343;BME280;4710;51.382;7.244;2022-09-12T19:32:04;99017.34;;;33.23;34.96
9343;BME280;4710;51.382;7.244;2022-09-12T19:34:45;99012.41;;;33.20;35.05
9343;BME280;4710;51.382;7.244;2022-09-12T19:37:22;99014.65;;;32.88;35.49
9343;BME280;4710;51.382;7.244;2022-09-12T19:40:00;99003.02;;;33.16;35.64
9343;BME280;4710;51.382;7.244;2022-09-12T19:42:40;99014.39;;;33.36;35.18
9343;BME280;4710;51.382;7.244;2022-09-12T19:45:21;99010.83;;;33.33;35.24
9343;BME280;4710;51.382;7.244;2022-09-12T19:47:58;99012.63;;;33.33;34.30
9343;BME280;4710;51.382;7.244;2022-09-12T19:50:36;99020.62;;;33.32;34.73
9343;BME280;4710;51.382;7.244;2022-09-12T19:53:14;99013.52;;;32.94;35.51
9343;BME280;4710;51.382;7.244;2022-09-12T19:55:57;99014.86;;;33.24;35.16
9343;BME280;4710;51.382;7.244;2022-09-12T19:58:39;99014.03;;;33.11;35.21
9343;BME280;4710;51.382;7.244;2022-09-12T20:01:20;99015.14;;;33.10;35.41
9343;BME280;4710;51.382;7.244;2022-09-12T20:03:59;99017.98;;;32.70;35.09
9343;BME280;4710;51.382;7.244;2022-09-12T20:06:40;99018.09;;;32.89;35.58
9343;BME280;4710;51.382;7.244;2022-09-12T20:09:20;99024.41;;;32.27;36.52
9343;BME280;4710;51.382;7.244;2022-09-12T20:11:57;99019.20;;;32.88;35.58
9343;BME280;4710;51.382;7.244;2022-09-12T20:14:38;99015.23;;;32.44;35.96
9343;BME280;4710;51.382;7.244;2022-09-12T20:17:15;99009.30;;;32.87;35.59
9343;BME280;4710;51.382;7.244;2022-09-12T20:19:52;99014.31;;;33.14;35.11
9343;BME280;4710;51.382;7.244;2022-09-12T20:22:30;99012.45;;;32.85;35.04
9343;BME280;4710;51.382;7.244;2022-09-12T20:25:07;99018.80;;;32.28;35.39
9343;BME280;4710;51.382;7.244;2022-09-12T20:27:47;99019.34;;;32.75;35.35
9343;BME280;4710;51.382;7.244;2022-09-12T20:30:24;99011.61;;;32.92;35.42
9343;BME280;4710;51.382;7.244;2022-09-12T20:33:04;99013.99;;;32.76;35.18
9343;BME280;4710;51.382;7.244;2022-09-12T20:35:42;99013.41;;;32.62;35.60
9343;BME280;4710;51.382;7.244;2022-09-12T20:38:29;99011.72;;;33.01;34.97
9343;BME280;4710;51.382;7.244;2022-09-12T20:41:14;99007.56;;;33.08;34.79
9343;BME280;4710;51.382;7.244;2022-09-12T20:44:01;99001.47;;;32.70;34.82
9343;BME280;4710;51.382;7.244;2022-09-12T20:46:39;98999.66;;;32.67;35.45
9343;BME280;4710;51.382;7.244;2022-09-12T20:49:19;99006.53;;;32.39;35.05
9343;BME280;4710;51.382;7.244;2022-09-12T20:51:56;98995.53;;;32.57;35.36
9343;BME280;4710;51.382;7.244;2022-09-12T20:54:33;98989.09;;;32.72;35.10
9343;BME280;4710;51.382;7.244;2022-09-12T20:57:11;98998.84;;;32.71;35.03
9343;BME280;4710;51.382;7.244;2022-09-12T20:59:48;99000.16;;;31.58;35.86
9343;BME280;4710;51.382;7.244;2022-09-12T21:02:29;98989.29;;;32.98;34.67
9343;BME280;4710;51.382;7.244;2022-09-12T21:05:08;98974.56;;;32.98;34.89
9343;BME280;4710;51.382;7.244;2022-09-12T21:07:46;98972.84;;;32.43;34.85
9343;BME280;4710;51.382;7.244;2022-09-12T21:10:23;98970.36;;;32.74;34.96
9343;BME280;4710;51.382;7.244;2022-09-12T21:13:04;98965.69;;;32.70;34.81
9343;BME280;4710;51.382;7.244;2022-09-12T21:15:45;98953.83;;;33.19;34.64
9343;BME280;4710;51.382;7.244;2022-09-12T21:18:23;98953.52;;;32.93;34.43
9343;BME280;4710;51.382;7.244;2022-09-12T21:21:01;98944.09;;;33.04;34.54
9343;BME280;4710;51.382;7.244;2022-09-12T21:23:38;98929.73;;;33.17;34.13
9343;BME280;4710;51.382;7.244;2022-09-12T21:26:18;98940.30;;;32.98;34.12
9343;BME280;4710;51.382;7.244;2022-09-12T21:28:55;98936.64;;;32.50;34.41
9343;BME280;4710;51.382;7.244;2022-09-12T21:31:37;98932.97;;;32.31;34.59
9343;BME280;4710;51.382;7.244;2022-09-12T21:34:18;98935.22;;;32.83;34.80
9343;BME280;4710;51.382;7.244;2022-09-12T21:36:55;98936.60;;;32.88;34.84
9343;BME280;4710;51.382;7.244;2022-09-12T21:39:37;98941.75;;;32.38;35.43
9343;BME280;4710;51.382;7.244;2022-09-12T21:42:19;98939.77;;;32.68;34.90
9343;BME280;4710;51.382;7.244;2022-09-12T21:44:56;98942.31;;;32.20;35.40
9343;BME280;4710;51.382;7.244;2022-09-12T21:47:37;98937.61;;;32.05;35.50
9343;BME280;4710;51.382;7.244;2022-09-12T21:50:15;98942.42;;;32.44;35.53
9343;BME280;4710;51.382;7.244;2022-09-12T21:52:52;98945.88;;;32.48;34.96
9343;BME280;4710;51.382;7.244;2022-09-12T21:55:48;98944.63;;;32.52;35.42
9343;BME280;4710;51.382;7.244;2022-09-12T22:09:08;98950.24;;;32.09;35.42
9343;BME280;4710;51.382;7.244;2022-09-12T22:11:45;98959.08;;;32.33;35.73
9343;BME280;4710;51.382;7.244;2022-09-12T22:14:26;98949.60;;;32.43;35.61
9343;BME280;4710;51.382;7.244;2022-09-12T22:17:03;98952.34;;;32.30;35.88
9343;BME280;4710;51.382;7.244;2022-09-12T22:19:44;98950.66;;;31.84;36.22
9343;BME280;4710;51.382;7.244;2022-09-12T22:22:21;98954.56;;;32.33;35.84
9343;BME280;4710;51.382;7.244;2022-09-12T22:25:09;98952.16;;;31.76;36.15
9343;BME280;4710;51.382;7.244;2022-09-12T22:27:51;98953.44;;;32.14;35.93
9343;BME280;4710;51.382;7.244;2022-09-12T22:30:28;98951.19;;;31.79;36.14
9343;BME280;4710;51.382;7.244;2022-09-12T22:33:09;98959.38;;;32.32;35.87
9343;BME280;4710;51.382;7.244;2022-09-12T22:35:49;98961.81;;;32.08;36.15
9343;BME280;4710;51.382;7.244;2022-09-12T22:38:27;98968.97;;;30.22;37.50
9343;BME280;4710;51.382;7.244;2022-09-12T22:41:05;98960.89;;;31.20;37.27
9343;BME280;4710;51.382;7.244;2022-09-12T22:43:46;98971.25;;;31.77;36.40
9343;BME280;4710;51.382;7.244;2022-09-12T22:46:23;98962.53;;;31.21;36.76
9343;BME280;4710;51.382;7.244;2022-09-12T22:49:04;98952.18;;;32.08;36.10
9343;BME280;4710;51.382;7.244;2022-09-12T22:51:44;98954.84;;;32.19;36.08
9343;BME280;4710;51.382;7.244;2022-09-12T22:54:25;98947.05;;;31.66;36.04
9343;BME280;4710;51.382;7.244;2022-09-12T22:57:06;98949.83;;;31.91;36.21
9343;BME280;4710;51.382;7.244;2022-09-12T22:59:43;98948.52;;;31.63;37.09
9343;BME280;4710;51.382;7.244;2022-09-12T23:02:23;98956.98;;;30.64;37.33
9343;BME280;4710;51.382;7.244;2022-09-12T23:05:01;98955.66;;;31.23;37.34
9343;BME280;4710;51.382;7.244;2022-09-12T23:07:39;98945.27;;;31.68;36.70
9343;BME280;4710;51.382;7.244;2022-09-12T23:10:18;98954.17;;;31.03;37.31
9343;BME280;4710;51.382;7.244;2022-09-12T23:12:59;98971.27;;;31.46;37.11
9343;BME280;4710;51.382;7.244;2022-09-12T23:15:39;98955.44;;;31.65;36.72
9343;BME280;4710;51.382;7.244;2022-09-12T23:18:20;98948.07;;;32.11;36.39
9343;BME280;4710;51.382;7.244;2022-09-12T23:20:59;98953.39;;;31.77;36.93
9343;BME280;4710;51.382;7.244;2022-09-12T23:23:39;98963.16;;;31.86;37.01
9343;BME280;4710;51.382;7.244;2022-09-12T23:26:21;98961.66;;;31.92;36.53
9343;BME280;4710;51.382;7.244;2022-09-12T23:29:01;98964.72;;;31.64;37.21
9343;BME280;4710;51.382;7.244;2022-09-12T23:31:41;98966.38;;;31.63;37.05
9343;BME280;4710;51.382;7.244;2022-09-12T23:34:21;98951.19;;;31.79;36.91
9343;BME280;4710;51.382;7.244;2022-09-12T23:36:59;98954.09;;;31.95;36.67
9343;BME280;4710;51.382;7.244;2022-09-12T23:39:42;98951.32;;;31.80;37.05
9343;BME280;4710;51.382;7.244;2022-09-12T23:42:19;98939.95;;;31.88;36.90
9343;BME280;4710;51.382;7.244;2022-09-12T23:44:57;98935.28;;;31.98;36.83
9343;BME280;4710;51.382;7.244;2022-09-12T23:47:34;98941.58;;;31.86;36.99
9343;BME280;4710;51.382;7.244;2022-09-12T23:50:11;98943.38;;;31.99;36.72
9343;BME280;4710;51.382;7.244;2022-09-12T23:52:50;98940.06;;;31.77;36.91
9343;BME280;4710;51.382;7.244;2022-09-12T23:55:27;98933.03;;;31.70;37.13
9343;BME280;4710;51.382;7.244;2022-09-12T23:58:05;98933.59;;;31.80;37.13
